sensor_id;sensor_type;location;lat;lon;timestamp;P1;durP1;ratioP1;P2;durP2;ratioP2
9208;SDS011;4639;48.862;9.188;2023-07-29T00:00:44;62.50;;;58.17;;
9208;SDS011;4639;48.862;9.188;2023-07-29T00:03:10;59.28;;;55.20;;
9208;SDS011;4639;48.862;9.188;2023-07-29T00:05:38;56.33;;;52.78;;
9208;SDS011;4639;48.862;9.188;2023-07-29T00:08:04;65.90;;;61.63;;
9208;SDS011;4639;48.862;9.188;2023-07-29T00:10:31;61.85;;;57.75;;
9208;SDS011;4639;48.862;9.188;2023-07-29T00:12:57;92.78;;;87.05;;
9208;SDS011;4639;48.862;9.188;2023-07-29T00:15:23;101.40;;;95.22;;
9208;SDS011;4639;48.862;9.188;2023-07-29T00:17:48;107.85;;;100.75;;
9208;SDS011;4639;48.862;9.188;2023-07-29T00:20:14;112.55;;;105.22;;
9208;SDS011;4639;48.862;9.188;2023-07-29T00:22:40;125.47;;;117.38;;
9208;SDS011;4639;48.862;9.188;2023-07-29T00:25:06;129.43;;;120.75;;
9208;SDS011;4639;48.862;9.188;2023-07-29T00:27:32;128.52;;;120.03;;
9208;SDS011;4639;48.862;9.188;2023-07-29T00:29:57;133.15;;;124.35;;
9208;SDS011;4639;48.862;9.188;2023-07-29T00:32:23;122.28;;;114.07;;
9208;SDS011;4639;48.862;9.188;2023-07-29T00:34:48;124.07;;;116.05;;
9208;SDS011;4639;48.862;9.188;2023-07-29T00:37:14;116.80;;;109.47;;
9208;SDS011;4639;48.862;9.188;2023-07-29T00:39:39;111.93;;;104.85;;
9208;SDS011;4639;48.862;9.188;2023-07-29T00:42:05;119.00;;;111.38;;
9208;SDS011;4639;48.862;9.188;2023-07-29T00:44:31;122.40;;;114.40;;
9208;SDS011;4639;48.862;9.188;2023-07-29T00:46:57;124.70;;;116.72;;
9208;SDS011;4639;48.862;9.188;2023-07-29T00:49:23;115.57;;;108.03;;
9208;SDS011;4639;48.862;9.188;2023-07-29T00:51:49;120.70;;;112.70;;
9208;SDS011;4639;48.862;9.188;2023-07-29T00:54:15;117.22;;;109.97;;
9208;SDS011;4639;48.862;9.188;2023-07-29T00:56:41;115.18;;;107.97;;
9208;SDS011;4639;48.862;9.188;2023-07-29T00:59:07;119.10;;;111.63;;
9208;SDS011;4639;48.862;9.188;2023-07-29T01:01:32;119.85;;;112.13;;
9208;SDS011;4639;48.862;9.188;2023-07-29T01:03:58;114.93;;;107.50;;
9208;SDS011;4639;48.862;9.188;2023-07-29T01:09:19;115.68;;;108.43;;
9208;SDS011;4639;48.862;9.188;2023-07-29T01:17:24;116.88;;;109.32;;
9208;SDS011;4639;48.862;9.188;2023-07-29T01:20:01;119.72;;;112.28;;
9208;SDS011;4639;48.862;9.188;2023-07-29T01:22:33;108.03;;;101.13;;
9208;SDS011;4639;48.862;9.188;2023-07-29T01:24:59;109.53;;;102.90;;
9208;SDS011;4639;48.862;9.188;2023-07-29T01:27:25;109.05;;;102.47;;
9208;SDS011;4639;48.862;9.188;2023-07-29T01:29:52;101.35;;;95.30;;
9208;SDS011;4639;48.862;9.188;2023-07-29T01:32:25;104.10;;;97.35;;
9208;SDS011;4639;48.862;9.188;2023-07-29T01:34:59;102.75;;;96.50;;
9208;SDS011;4639;48.862;9.188;2023-07-29T01:37:29;103.03;;;96.70;;
9208;SDS011;4639;48.862;9.188;2023-07-29T01:39:59;104.10;;;97.75;;
9208;SDS011;4639;48.862;9.188;2023-07-29T01:42:25;103.47;;;96.97;;
9208;SDS011;4639;48.862;9.188;2023-07-29T01:44:51;103.95;;;97.40;;
9208;SDS011;4639;48.862;9.188;2023-07-29T01:47:17;105.45;;;99.20;;
9208;SDS011;4639;48.862;9.188;2023-07-29T01:49:43;102.57;;;96.53;;
9208;SDS011;4639;48.862;9.188;2023-07-29T01:52:09;106.70;;;100.25;;
9208;SDS011;4639;48.862;9.188;2023-07-29T01:54:35;110.40;;;103.38;;
9208;SDS011;4639;48.862;9.188;2023-07-29T01:57:01;105.60;;;99.15;;
9208;SDS011;4639;48.862;9.188;2023-07-29T01:59:26;112.35;;;105.28;;
9208;SDS011;4639;48.862;9.188;2023-07-29T02:01:52;120.10;;;112.50;;
9208;SDS011;4639;48.862;9.188;2023-07-29T02:04:18;115.10;;;107.93;;
9208;SDS011;4639;48.862;9.188;2023-07-29T02:06:43;115.65;;;108.55;;
9208;SDS011;4639;48.862;9.188;2023-07-29T02:09:09;113.45;;;106.13;;
9208;SDS011;4639;48.862;9.188;2023-07-29T02:11:34;120.78;;;113.30;;
9208;SDS011;4639;48.862;9.188;2023-07-29T02:14:00;115.68;;;108.38;;
9208;SDS011;4639;48.862;9.188;2023-07-29T02:16:25;117.60;;;110.18;;
9208;SDS011;4639;48.862;9.188;2023-07-29T02:18:51;109.80;;;102.82;;
9208;SDS011;4639;48.862;9.188;2023-07-29T02:21:17;106.22;;;99.78;;
9208;SDS011;4639;48.862;9.188;2023-07-29T02:23:42;102.57;;;96.38;;
9208;SDS011;4639;48.862;9.188;2023-07-29T02:26:08;95.47;;;89.63;;
9208;SDS011;4639;48.862;9.188;2023-07-29T02:28:34;97.47;;;91.57;;
9208;SDS011;4639;48.862;9.188;2023-07-29T02:31:09;94.00;;;88.40;;
9208;SDS011;4639;48.862;9.188;2023-07-29T02:33:42;87.28;;;82.00;;
9208;SDS011;4639;48.862;9.188;2023-07-29T02:36:08;100.85;;;94.68;;
9208;SDS011;4639;48.862;9.188;2023-07-29T02:38:34;92.55;;;86.97;;
9208;SDS011;4639;48.862;9.188;2023-07-29T02:40:59;100.07;;;93.97;;
9208;SDS011;4639;48.862;9.188;2023-07-29T02:43:25;100.28;;;94.18;;
9208;SDS011;4639;48.862;9.188;2023-07-29T02:45:51;97.68;;;91.78;;
9208;SDS011;4639;48.862;9.188;2023-07-29T02:48:16;97.13;;;91.07;;
9208;SDS011;4639;48.862;9.188;2023-07-29T02:50:42;103.35;;;96.72;;
9208;SDS011;4639;48.862;9.188;2023-07-29T02:53:08;100.03;;;94.03;;
9208;SDS011;4639;48.862;9.188;2023-07-29T02:55:33;99.93;;;94.03;;
9208;SDS011;4639;48.862;9.188;2023-07-29T02:57:59;93.20;;;87.78;;
9208;SDS011;4639;48.862;9.188;2023-07-29T03:00:24;93.90;;;88.28;;
9208;SDS011;4639;48.862;9.188;2023-07-29T03:02:50;91.57;;;86.13;;
9208;SDS011;4639;48.862;9.188;2023-07-29T03:05:15;100.00;;;93.95;;
9208;SDS011;4639;48.862;9.188;2023-07-29T03:07:41;88.53;;;83.25;;
9208;SDS011;4639;48.862;9.188;2023-07-29T03:10:07;90.82;;;85.15;;
9208;SDS011;4639;48.862;9.188;2023-07-29T03:12:33;92.72;;;87.13;;
9208;SDS011;4639;48.862;9.188;2023-07-29T03:14:58;92.82;;;86.93;;
9208;SDS011;4639;48.862;9.188;2023-07-29T03:17:25;93.32;;;87.65;;
9208;SDS011;4639;48.862;9.188;2023-07-29T03:19:51;93.18;;;87.57;;
9208;SDS011;4639;48.862;9.188;2023-07-29T03:22:17;87.97;;;82.65;;
9208;SDS011;4639;48.862;9.188;2023-07-29T03:24:42;93.30;;;87.60;;
9208;SDS011;4639;48.862;9.188;2023-07-29T03:27:08;100.38;;;94.30;;
9208;SDS011;4639;48.862;9.188;2023-07-29T03:29:35;93.93;;;88.25;;
9208;SDS011;4639;48.862;9.188;2023-07-29T03:32:00;91.05;;;85.22;;
9208;SDS011;4639;48.862;9.188;2023-07-29T03:34:26;86.65;;;81.47;;
9208;SDS011;4639;48.862;9.188;2023-07-29T03:36:52;92.72;;;87.07;;
9208;SDS011;4639;48.862;9.188;2023-07-29T03:39:17;86.45;;;81.30;;
9208;SDS011;4639;48.862;9.188;2023-07-29T03:41:43;78.13;;;73.55;;
9208;SDS011;4639;48.862;9.188;2023-07-29T03:44:08;83.38;;;78.38;;
9208;SDS011;4639;48.862;9.188;2023-07-29T03:46:34;75.78;;;71.32;;
9208;SDS011;4639;48.862;9.188;2023-07-29T03:48:59;75.05;;;70.55;;
9208;SDS011;4639;48.862;9.188;2023-07-29T03:51:25;67.70;;;63.67;;
9208;SDS011;4639;48.862;9.188;2023-07-29T03:53:50;65.45;;;61.38;;
9208;SDS011;4639;48.862;9.188;2023-07-29T03:56:16;59.75;;;56.17;;
9208;SDS011;4639;48.862;9.188;2023-07-29T03:58:42;49.47;;;46.55;;
9208;SDS011;4639;48.862;9.188;2023-07-29T04:01:09;52.92;;;49.85;;
9208;SDS011;4639;48.862;9.188;2023-07-29T04:03:34;51.55;;;48.47;;
9208;SDS011;4639;48.862;9.188;2023-07-29T04:06:00;55.85;;;52.58;;
9208;SDS011;4639;48.862;9.188;2023-07-29T04:08:26;61.22;;;57.42;;
9208;SDS011;4639;48.862;9.188;2023-07-29T04:10:51;63.28;;;59.45;;
9208;SDS011;4639;48.862;9.188;2023-07-29T04:13:17;52.60;;;49.22;;
9208;SDS011;4639;48.862;9.188;2023-07-29T04:15:43;57.47;;;53.83;;
9208;SDS011;4639;48.862;9.188;2023-07-29T04:18:08;54.90;;;51.65;;
9208;SDS011;4639;48.862;9.188;2023-07-29T04:20:34;54.45;;;51.10;;
9208;SDS011;4639;48.862;9.188;2023-07-29T04:22:59;73.60;;;69.32;;
9208;SDS011;4639;48.862;9.188;2023-07-29T04:25:25;78.13;;;73.47;;
9208;SDS011;4639;48.862;9.188;2023-07-29T04:27:51;76.20;;;71.30;;
9208;SDS011;4639;48.862;9.188;2023-07-29T04:30:16;75.88;;;71.28;;
9208;SDS011;4639;48.862;9.188;2023-07-29T04:32:42;98.22;;;92.43;;
9208;SDS011;4639;48.862;9.188;2023-07-29T04:35:08;71.13;;;66.78;;
9208;SDS011;4639;48.862;9.188;2023-07-29T04:37:34;65.97;;;62.15;;
9208;SDS011;4639;48.862;9.188;2023-07-29T04:39:59;63.53;;;59.80;;
9208;SDS011;4639;48.862;9.188;2023-07-29T04:42:25;53.97;;;50.80;;
9208;SDS011;4639;48.862;9.188;2023-07-29T04:44:50;53.13;;;49.92;;
9208;SDS011;4639;48.862;9.188;2023-07-29T04:47:16;59.10;;;55.42;;
9208;SDS011;4639;48.862;9.188;2023-07-29T04:49:41;64.63;;;60.60;;
9208;SDS011;4639;48.862;9.188;2023-07-29T04:52:07;65.35;;;61.42;;
9208;SDS011;4639;48.862;9.188;2023-07-29T04:54:33;59.70;;;56.28;;
9208;SDS011;4639;48.862;9.188;2023-07-29T04:56:58;66.90;;;62.67;;
9208;SDS011;4639;48.862;9.188;2023-07-29T04:59:24;63.00;;;59.13;;
9208;SDS011;4639;48.862;9.188;2023-07-29T05:01:50;72.63;;;68.35;;
9208;SDS011;4639;48.862;9.188;2023-07-29T05:04:15;85.28;;;80.13;;
9208;SDS011;4639;48.862;9.188;2023-07-29T05:06:41;90.65;;;85.07;;
9208;SDS011;4639;48.862;9.188;2023-07-29T05:09:16;97.57;;;91.40;;
9208;SDS011;4639;48.862;9.188;2023-07-29T05:11:44;103.40;;;96.95;;
9208;SDS011;4639;48.862;9.188;2023-07-29T05:14:11;101.72;;;95.35;;
9208;SDS011;4639;48.862;9.188;2023-07-29T05:16:37;104.45;;;98.00;;
9208;SDS011;4639;48.862;9.188;2023-07-29T05:19:03;105.53;;;99.13;;
9208;SDS011;4639;48.862;9.188;2023-07-29T05:21:29;102.72;;;96.05;;
9208;SDS011;4639;48.862;9.188;2023-07-29T05:23:55;102.90;;;96.70;;
9208;SDS011;4639;48.862;9.188;2023-07-29T05:26:20;105.40;;;98.85;;
9208;SDS011;4639;48.862;9.188;2023-07-29T05:28:46;99.18;;;92.85;;
9208;SDS011;4639;48.862;9.188;2023-07-29T05:31:12;109.80;;;102.57;;
9208;SDS011;4639;48.862;9.188;2023-07-29T05:33:37;105.18;;;98.63;;
9208;SDS011;4639;48.862;9.188;2023-07-29T05:36:03;111.35;;;103.78;;
9208;SDS011;4639;48.862;9.188;2023-07-29T05:38:30;100.78;;;94.22;;
9208;SDS011;4639;48.862;9.188;2023-07-29T05:40:55;110.68;;;103.72;;
9208;SDS011;4639;48.862;9.188;2023-07-29T05:43:21;110.30;;;103.43;;
9208;SDS011;4639;48.862;9.188;2023-07-29T05:45:46;110.03;;;103.10;;
9208;SDS011;4639;48.862;9.188;2023-07-29T05:48:12;89.95;;;84.35;;
9208;SDS011;4639;48.862;9.188;2023-07-29T05:50:38;119.15;;;111.80;;
9208;SDS011;4639;48.862;9.188;2023-07-29T05:53:03;90.90;;;85.47;;
9208;SDS011;4639;48.862;9.188;2023-07-29T05:55:29;92.35;;;86.75;;
9208;SDS011;4639;48.862;9.188;2023-07-29T05:57:54;76.95;;;72.35;;
9208;SDS011;4639;48.862;9.188;2023-07-29T06:00:20;53.53;;;50.25;;
9208;SDS011;4639;48.862;9.188;2023-07-29T06:02:46;53.22;;;50.05;;
9208;SDS011;4639;48.862;9.188;2023-07-29T06:05:11;46.42;;;43.53;;
9208;SDS011;4639;48.862;9.188;2023-07-29T06:07:37;54.60;;;51.47;;
9208;SDS011;4639;48.862;9.188;2023-07-29T06:10:03;56.28;;;53.00;;
9208;SDS011;4639;48.862;9.188;2023-07-29T06:12:28;55.92;;;52.55;;
9208;SDS011;4639;48.862;9.188;2023-07-29T06:14:54;61.10;;;57.35;;
9208;SDS011;4639;48.862;9.188;2023-07-29T06:17:19;64.75;;;60.70;;
9208;SDS011;4639;48.862;9.188;2023-07-29T06:19:45;66.25;;;62.28;;
9208;SDS011;4639;48.862;9.188;2023-07-29T06:22:10;66.00;;;61.97;;
9208;SDS011;4639;48.862;9.188;2023-07-29T06:24:36;85.03;;;79.95;;
9208;SDS011;4639;48.862;9.188;2023-07-29T06:27:02;81.90;;;76.97;;
9208;SDS011;4639;48.862;9.188;2023-07-29T06:29:28;33.78;;;31.83;;
9208;SDS011;4639;48.862;9.188;2023-07-29T06:31:53;41.63;;;38.58;;
9208;SDS011;4639;48.862;9.188;2023-07-29T06:34:19;44.25;;;41.50;;
9208;SDS011;4639;48.862;9.188;2023-07-29T06:36:45;43.63;;;40.97;;
9208;SDS011;4639;48.862;9.188;2023-07-29T06:39:10;45.72;;;43.08;;
9208;SDS011;4639;48.862;9.188;2023-07-29T06:41:36;48.28;;;45.30;;
9208;SDS011;4639;48.862;9.188;2023-07-29T06:44:02;44.28;;;41.53;;
9208;SDS011;4639;48.862;9.188;2023-07-29T06:46:27;45.97;;;43.15;;
9208;SDS011;4639;48.862;9.188;2023-07-29T06:48:53;48.97;;;46.00;;
9208;SDS011;4639;48.862;9.188;2023-07-29T06:51:18;49.65;;;46.63;;
9208;SDS011;4639;48.862;9.188;2023-07-29T06:53:44;52.53;;;49.38;;
9208;SDS011;4639;48.862;9.188;2023-07-29T06:56:09;56.08;;;52.65;;
9208;SDS011;4639;48.862;9.188;2023-07-29T06:58:35;52.60;;;49.45;;
9208;SDS011;4639;48.862;9.188;2023-07-29T07:01:00;51.58;;;48.42;;
9208;SDS011;4639;48.862;9.188;2023-07-29T07:03:28;54.53;;;51.35;;
9208;SDS011;4639;48.862;9.188;2023-07-29T07:05:53;42.97;;;40.15;;
9208;SDS011;4639;48.862;9.188;2023-07-29T07:08:19;53.70;;;50.55;;
9208;SDS011;4639;48.862;9.188;2023-07-29T07:10:46;49.55;;;46.67;;
9208;SDS011;4639;48.862;9.188;2023-07-29T07:13:12;54.65;;;50.95;;
9208;SDS011;4639;48.862;9.188;2023-07-29T07:15:37;40.70;;;38.10;;
9208;SDS011;4639;48.862;9.188;2023-07-29T07:18:03;35.35;;;32.97;;
9208;SDS011;4639;48.862;9.188;2023-07-29T07:20:28;36.22;;;33.75;;
9208;SDS011;4639;48.862;9.188;2023-07-29T07:22:54;36.85;;;34.35;;
9208;SDS011;4639;48.862;9.188;2023-07-29T07:25:20;39.17;;;36.53;;
9208;SDS011;4639;48.862;9.188;2023-07-29T07:27:46;35.28;;;33.20;;
9208;SDS011;4639;48.862;9.188;2023-07-29T07:30:12;33.20;;;31.20;;
9208;SDS011;4639;48.862;9.188;2023-07-29T07:32:37;32.78;;;30.67;;
9208;SDS011;4639;48.862;9.188;2023-07-29T07:35:03;31.92;;;30.02;;
9208;SDS011;4639;48.862;9.188;2023-07-29T07:37:29;33.03;;;30.88;;
9208;SDS011;4639;48.862;9.188;2023-07-29T07:39:54;36.55;;;34.53;;
9208;SDS011;4639;48.862;9.188;2023-07-29T07:42:20;65.88;;;61.92;;
9208;SDS011;4639;48.862;9.188;2023-07-29T07:44:46;72.72;;;68.10;;
9208;SDS011;4639;48.862;9.188;2023-07-29T07:47:11;70.28;;;65.93;;
9208;SDS011;4639;48.862;9.188;2023-07-29T07:49:37;56.80;;;53.35;;
9208;SDS011;4639;48.862;9.188;2023-07-29T07:52:02;79.13;;;74.32;;
9208;SDS011;4639;48.862;9.188;2023-07-29T07:54:28;77.22;;;72.60;;
9208;SDS011;4639;48.862;9.188;2023-07-29T07:56:53;76.10;;;71.55;;
9208;SDS011;4639;48.862;9.188;2023-07-29T07:59:19;81.15;;;76.25;;
9208;SDS011;4639;48.862;9.188;2023-07-29T08:01:44;76.75;;;72.18;;
9208;SDS011;4639;48.862;9.188;2023-07-29T08:04:10;77.45;;;72.78;;
9208;SDS011;4639;48.862;9.188;2023-07-29T08:06:36;77.95;;;73.25;;
9208;SDS011;4639;48.862;9.188;2023-07-29T08:09:02;69.50;;;65.32;;
9208;SDS011;4639;48.862;9.188;2023-07-29T08:11:27;62.53;;;58.72;;
9208;SDS011;4639;48.862;9.188;2023-07-29T08:13:53;64.78;;;60.65;;
9208;SDS011;4639;48.862;9.188;2023-07-29T08:16:19;67.03;;;62.95;;
9208;SDS011;4639;48.862;9.188;2023-07-29T08:18:44;67.78;;;63.50;;
9208;SDS011;4639;48.862;9.188;2023-07-29T08:21:10;75.35;;;70.72;;
9208;SDS011;4639;48.862;9.188;2023-07-29T08:23:36;63.70;;;59.83;;
9208;SDS011;4639;48.862;9.188;2023-07-29T08:26:03;45.45;;;42.72;;
9208;SDS011;4639;48.862;9.188;2023-07-29T08:28:33;107.75;;;100.07;;
9208;SDS011;4639;48.862;9.188;2023-07-29T08:31:01;25.05;;;23.58;;
9208;SDS011;4639;48.862;9.188;2023-07-29T08:33:27;31.30;;;29.52;;
9208;SDS011;4639;48.862;9.188;2023-07-29T08:35:53;31.90;;;30.10;;
9208;SDS011;4639;48.862;9.188;2023-07-29T08:38:19;28.55;;;26.65;;
9208;SDS011;4639;48.862;9.188;2023-07-29T08:40:48;24.95;;;23.45;;
9208;SDS011;4639;48.862;9.188;2023-07-29T08:43:19;29.25;;;27.60;;
9208;SDS011;4639;48.862;9.188;2023-07-29T08:45:48;33.20;;;31.20;;
9208;SDS011;4639;48.862;9.188;2023-07-29T08:48:15;27.45;;;25.92;;
9208;SDS011;4639;48.862;9.188;2023-07-29T08:50:48;35.90;;;33.80;;
9208;SDS011;4639;48.862;9.188;2023-07-29T08:53:15;35.08;;;33.05;;
9208;SDS011;4639;48.862;9.188;2023-07-29T08:55:41;30.13;;;28.48;;
9208;SDS011;4639;48.862;9.188;2023-07-29T08:58:07;37.85;;;35.72;;
9208;SDS011;4639;48.862;9.188;2023-07-29T09:00:33;19.70;;;18.58;;
9208;SDS011;4639;48.862;9.188;2023-07-29T09:02:59;21.00;;;19.80;;
9208;SDS011;4639;48.862;9.188;2023-07-29T09:05:31;19.67;;;18.60;;
9208;SDS011;4639;48.862;9.188;2023-07-29T09:07:58;132.35;;;123.30;;
9208;SDS011;4639;48.862;9.188;2023-07-29T09:10:25;25.88;;;24.40;;
9208;SDS011;4639;48.862;9.188;2023-07-29T09:12:51;23.23;;;21.73;;
9208;SDS011;4639;48.862;9.188;2023-07-29T09:15:26;18.23;;;17.20;;
9208;SDS011;4639;48.862;9.188;2023-07-29T09:17:53;26.75;;;25.25;;
9208;SDS011;4639;48.862;9.188;2023-07-29T09:20:24;100.05;;;93.50;;
9208;SDS011;4639;48.862;9.188;2023-07-29T09:22:50;23.27;;;22.00;;
9208;SDS011;4639;48.862;9.188;2023-07-29T09:25:16;23.85;;;22.48;;
9208;SDS011;4639;48.862;9.188;2023-07-29T09:27:49;24.77;;;23.38;;
9208;SDS011;4639;48.862;9.188;2023-07-29T09:30:17;31.92;;;30.13;;
9208;SDS011;4639;48.862;9.188;2023-07-29T09:32:43;44.25;;;41.70;;
9208;SDS011;4639;48.862;9.188;2023-07-29T09:35:09;65.25;;;61.42;;
9208;SDS011;4639;48.862;9.188;2023-07-29T09:37:37;49.97;;;47.15;;
9208;SDS011;4639;48.862;9.188;2023-07-29T09:40:04;48.63;;;45.63;;
9208;SDS011;4639;48.862;9.188;2023-07-29T09:42:30;197.35;;;183.48;;
9208;SDS011;4639;48.862;9.188;2023-07-29T09:44:57;44.47;;;41.97;;
9208;SDS011;4639;48.862;9.188;2023-07-29T09:47:22;45.45;;;42.92;;
9208;SDS011;4639;48.862;9.188;2023-07-29T09:49:50;33.03;;;31.23;;
9208;SDS011;4639;48.862;9.188;2023-07-29T09:52:19;67.63;;;63.28;;
9208;SDS011;4639;48.862;9.188;2023-07-29T09:54:47;49.10;;;46.10;;
9208;SDS011;4639;48.862;9.188;2023-07-29T09:57:17;139.25;;;129.95;;
9208;SDS011;4639;48.862;9.188;2023-07-29T09:59:53;50.85;;;47.85;;
9208;SDS011;4639;48.862;9.188;2023-07-29T10:02:20;222.23;;;206.93;;
9208;SDS011;4639;48.862;9.188;2023-07-29T10:04:46;35.60;;;33.58;;
9208;SDS011;4639;48.862;9.188;2023-07-29T10:07:12;80.45;;;75.20;;
9208;SDS011;4639;48.862;9.188;2023-07-29T10:09:39;44.65;;;42.17;;
9208;SDS011;4639;48.862;9.188;2023-07-29T10:12:05;85.55;;;79.65;;
9208;SDS011;4639;48.862;9.188;2023-07-29T10:14:32;48.13;;;45.08;;
9208;SDS011;4639;48.862;9.188;2023-07-29T10:16:57;79.75;;;74.47;;
9208;SDS011;4639;48.862;9.188;2023-07-29T10:19:24;49.35;;;46.58;;
9208;SDS011;4639;48.862;9.188;2023-07-29T10:21:53;50.08;;;47.13;;
9208;SDS011;4639;48.862;9.188;2023-07-29T10:24:22;45.45;;;42.75;;
9208;SDS011;4639;48.862;9.188;2023-07-29T10:26:54;41.65;;;38.97;;
9208;SDS011;4639;48.862;9.188;2023-07-29T10:29:23;94.50;;;88.03;;
9208;SDS011;4639;48.862;9.188;2023-07-29T10:31:53;90.68;;;85.00;;
9208;SDS011;4639;48.862;9.188;2023-07-29T10:34:22;101.10;;;94.40;;
9208;SDS011;4639;48.862;9.188;2023-07-29T10:36:49;52.35;;;49.05;;
9208;SDS011;4639;48.862;9.188;2023-07-29T10:39:15;32.28;;;30.55;;
9208;SDS011;4639;48.862;9.188;2023-07-29T10:42:00;50.47;;;47.63;;
9208;SDS011;4639;48.862;9.188;2023-07-29T10:47:14;43.92;;;41.33;;
9208;SDS011;4639;48.862;9.188;2023-07-29T10:49:49;22.35;;;21.05;;
9208;SDS011;4639;48.862;9.188;2023-07-29T10:55:00;27.77;;;26.08;;
9208;SDS011;4639;48.862;9.188;2023-07-29T10:57:32;69.65;;;64.97;;
9208;SDS011;4639;48.862;9.188;2023-07-29T11:00:07;22.63;;;21.15;;
9208;SDS011;4639;48.862;9.188;2023-07-29T11:02:37;28.63;;;27.05;;
9208;SDS011;4639;48.862;9.188;2023-07-29T11:05:21;44.55;;;41.90;;
9208;SDS011;4639;48.862;9.188;2023-07-29T11:07:47;13.05;;;12.35;;
9208;SDS011;4639;48.862;9.188;2023-07-29T11:10:14;76.97;;;72.00;;
9208;SDS011;4639;48.862;9.188;2023-07-29T11:12:44;21.23;;;20.13;;
9208;SDS011;4639;48.862;9.188;2023-07-29T11:20:40;12.93;;;12.13;;
9208;SDS011;4639;48.862;9.188;2023-07-29T11:23:05;63.40;;;59.42;;
9208;SDS011;4639;48.862;9.188;2023-07-29T11:25:31;37.97;;;35.65;;
9208;SDS011;4639;48.862;9.188;2023-07-29T11:27:59;24.20;;;22.83;;
9208;SDS011;4639;48.862;9.188;2023-07-29T11:30:25;55.05;;;51.38;;
9208;SDS011;4639;48.862;9.188;2023-07-29T11:32:55;22.40;;;21.08;;
9208;SDS011;4639;48.862;9.188;2023-07-29T11:35:21;16.73;;;15.80;;
9208;SDS011;4639;48.862;9.188;2023-07-29T11:37:50;14.13;;;13.35;;
9208;SDS011;4639;48.862;9.188;2023-07-29T11:40:20;5.40;;;5.00;;
9208;SDS011;4639;48.862;9.188;2023-07-29T11:42:47;65.65;;;61.35;;
9208;SDS011;4639;48.862;9.188;2023-07-29T11:45:17;32.00;;;29.85;;
9208;SDS011;4639;48.862;9.188;2023-07-29T11:47:43;16.40;;;15.38;;
9208;SDS011;4639;48.862;9.188;2023-07-29T11:50:10;5.22;;;4.80;;
9208;SDS011;4639;48.862;9.188;2023-07-29T11:52:40;4.47;;;4.20;;
9208;SDS011;4639;48.862;9.188;2023-07-29T11:55:07;4.40;;;4.15;;
9208;SDS011;4639;48.862;9.188;2023-07-29T11:57:33;20.77;;;19.40;;
9208;SDS011;4639;48.862;9.188;2023-07-29T12:00:04;42.58;;;39.83;;
9208;SDS011;4639;48.862;9.188;2023-07-29T12:02:31;6.22;;;5.80;;
9208;SDS011;4639;48.862;9.188;2023-07-29T12:04:58;9.57;;;9.02;;
9208;SDS011;4639;48.862;9.188;2023-07-29T12:07:24;5.60;;;5.30;;
9208;SDS011;4639;48.862;9.188;2023-07-29T12:09:50;6.03;;;5.50;;
9208;SDS011;4639;48.862;9.188;2023-07-29T12:12:16;28.63;;;26.83;;
9208;SDS011;4639;48.862;9.188;2023-07-29T12:14:43;17.27;;;16.33;;
9208;SDS011;4639;48.862;9.188;2023-07-29T12:17:11;13.88;;;13.15;;
9208;SDS011;4639;48.862;9.188;2023-07-29T12:19:37;26.05;;;24.63;;
9208;SDS011;4639;48.862;9.188;2023-07-29T12:22:04;32.80;;;30.77;;
9208;SDS011;4639;48.862;9.188;2023-07-29T12:24:32;40.25;;;37.63;;
9208;SDS011;4639;48.862;9.188;2023-07-29T12:26:58;35.47;;;33.40;;
9208;SDS011;4639;48.862;9.188;2023-07-29T12:29:24;89.50;;;82.95;;
9208;SDS011;4639;48.862;9.188;2023-07-29T12:31:58;47.42;;;44.58;;
9208;SDS011;4639;48.862;9.188;2023-07-29T12:34:25;50.47;;;47.05;;
9208;SDS011;4639;48.862;9.188;2023-07-29T12:36:55;66.45;;;61.83;;
9208;SDS011;4639;48.862;9.188;2023-07-29T12:39:26;57.55;;;53.55;;
9208;SDS011;4639;48.862;9.188;2023-07-29T12:41:53;36.78;;;34.25;;
9208;SDS011;4639;48.862;9.188;2023-07-29T12:44:22;14.68;;;13.77;;
9208;SDS011;4639;48.862;9.188;2023-07-29T12:46:48;26.65;;;24.90;;
9208;SDS011;4639;48.862;9.188;2023-07-29T12:49:14;11.95;;;11.27;;
9208;SDS011;4639;48.862;9.188;2023-07-29T12:51:39;26.58;;;24.95;;
9208;SDS011;4639;48.862;9.188;2023-07-29T12:54:05;14.70;;;13.93;;
9208;SDS011;4639;48.862;9.188;2023-07-29T12:56:31;109.10;;;101.40;;
9208;SDS011;4639;48.862;9.188;2023-07-29T12:58:57;46.58;;;43.80;;
9208;SDS011;4639;48.862;9.188;2023-07-29T13:01:23;30.02;;;28.33;;
9208;SDS011;4639;48.862;9.188;2023-07-29T13:03:49;102.68;;;95.50;;
9208;SDS011;4639;48.862;9.188;2023-07-29T13:06:15;36.47;;;34.30;;
9208;SDS011;4639;48.862;9.188;2023-07-29T13:08:41;15.48;;;14.68;;
9208;SDS011;4639;48.862;9.188;2023-07-29T13:11:07;16.25;;;15.25;;
9208;SDS011;4639;48.862;9.188;2023-07-29T13:13:33;23.52;;;22.02;;
9208;SDS011;4639;48.862;9.188;2023-07-29T13:15:58;72.60;;;67.57;;
9208;SDS011;4639;48.862;9.188;2023-07-29T13:18:24;50.13;;;46.97;;
9208;SDS011;4639;48.862;9.188;2023-07-29T13:20:50;31.23;;;29.55;;
9208;SDS011;4639;48.862;9.188;2023-07-29T13:23:15;69.53;;;64.97;;
9208;SDS011;4639;48.862;9.188;2023-07-29T13:25:41;16.95;;;15.95;;
9208;SDS011;4639;48.862;9.188;2023-07-29T13:28:08;90.70;;;84.47;;
9208;SDS011;4639;48.862;9.188;2023-07-29T13:30:35;78.60;;;73.63;;
9208;SDS011;4639;48.862;9.188;2023-07-29T13:33:00;139.50;;;129.43;;
9208;SDS011;4639;48.862;9.188;2023-07-29T13:35:26;40.10;;;37.85;;
9208;SDS011;4639;48.862;9.188;2023-07-29T13:37:52;134.60;;;125.38;;
9208;SDS011;4639;48.862;9.188;2023-07-29T13:40:18;46.33;;;43.78;;
9208;SDS011;4639;48.862;9.188;2023-07-29T13:42:43;110.57;;;103.32;;
9208;SDS011;4639;48.862;9.188;2023-07-29T13:45:09;45.58;;;42.63;;
9208;SDS011;4639;48.862;9.188;2023-07-29T13:47:34;30.40;;;28.73;;
9208;SDS011;4639;48.862;9.188;2023-07-29T13:50:00;19.30;;;18.30;;
9208;SDS011;4639;48.862;9.188;2023-07-29T13:52:26;15.90;;;15.02;;
9208;SDS011;4639;48.862;9.188;2023-07-29T13:54:52;44.97;;;42.20;;
9208;SDS011;4639;48.862;9.188;2023-07-29T13:57:17;45.88;;;43.15;;
9208;SDS011;4639;48.862;9.188;2023-07-29T13:59:43;12.15;;;11.23;;
9208;SDS011;4639;48.862;9.188;2023-07-29T14:02:08;8.95;;;8.45;;
9208;SDS011;4639;48.862;9.188;2023-07-29T14:04:34;12.48;;;11.65;;
9208;SDS011;4639;48.862;9.188;2023-07-29T14:07:00;28.23;;;26.52;;
9208;SDS011;4639;48.862;9.188;2023-07-29T14:09:26;125.20;;;116.65;;
9208;SDS011;4639;48.862;9.188;2023-07-29T14:11:53;49.72;;;46.65;;
9208;SDS011;4639;48.862;9.188;2023-07-29T14:14:19;92.53;;;86.38;;
9208;SDS011;4639;48.862;9.188;2023-07-29T14:16:45;136.85;;;127.65;;
9208;SDS011;4639;48.862;9.188;2023-07-29T14:19:11;27.98;;;26.45;;
9208;SDS011;4639;48.862;9.188;2023-07-29T14:21:36;60.60;;;56.95;;
9208;SDS011;4639;48.862;9.188;2023-07-29T14:24:02;87.45;;;82.05;;
9208;SDS011;4639;48.862;9.188;2023-07-29T14:26:28;57.63;;;54.22;;
9208;SDS011;4639;48.862;9.188;2023-07-29T14:28:53;21.92;;;20.70;;
9208;SDS011;4639;48.862;9.188;2023-07-29T14:31:19;67.03;;;63.05;;
9208;SDS011;4639;48.862;9.188;2023-07-29T14:33:44;21.73;;;20.55;;
9208;SDS011;4639;48.862;9.188;2023-07-29T14:36:10;19.38;;;18.23;;
9208;SDS011;4639;48.862;9.188;2023-07-29T14:38:36;22.27;;;20.98;;
9208;SDS011;4639;48.862;9.188;2023-07-29T14:41:02;41.67;;;38.85;;
9208;SDS011;4639;48.862;9.188;2023-07-29T14:43:29;32.40;;;30.23;;
9208;SDS011;4639;48.862;9.188;2023-07-29T14:45:55;15.25;;;14.40;;
9208;SDS011;4639;48.862;9.188;2023-07-29T14:48:21;124.60;;;116.00;;
9208;SDS011;4639;48.862;9.188;2023-07-29T14:50:47;94.93;;;88.60;;
9208;SDS011;4639;48.862;9.188;2023-07-29T14:53:13;8.93;;;8.40;;
9208;SDS011;4639;48.862;9.188;2023-07-29T14:55:39;13.73;;;12.85;;
9208;SDS011;4639;48.862;9.188;2023-07-29T14:58:04;13.80;;;12.77;;